Time;durP1;ratioP1;P1;durP2;ratioP2;P2;SDS_P1;SDS_P2;PMS_P1;PMS_P2;Temp;Humidity;BMP_temperature;BMP_pressure;BME280_temperature;BME280_humidity;BME280_pressure;Samples;Min_cycle;Max_cycle;Signal;HPM_P1;HPM_P2
2023/08/17 00:00:41;;;;;;;1.23;1.13;;;;;;;19.33;100.00;98733.03;4179801;28;20200;-47
2023/08/17 00:02:43;;;;;;;1.30;1.20;;;;;;;19.34;100.00;98737.47;4170980;28;20208;-46
2023/08/17 00:04:45;;;;;;;2.40;1.75;;;;;;;19.38;100.00;98735.75;4173245;28;20232;-48
2023/08/17 00:06:47;;;;;;;2.13;1.77;;;;;;;19.37;100.00;98731.34;4186440;28;20200;-46
2023/08/17 00:08:48;;;;;;;2.28;1.33;;;;;;;19.22;100.00;98732.38;4172824;28;20570;-46
2023/08/17 00:10:50;;;;;;;4.35;1.63;;;;;;;19.18;100.00;98731.28;4179126;28;20224;-48
2023/08/17 00:12:52;;;;;;;6.28;1.63;;;;;;;19.12;100.00;98726.94;4172279;28;20204;-46
2023/08/17 00:14:54;;;;;;;21.55;2.20;;;;;;;19.11;100.00;98732.81;4178379;28;20803;-46
2023/08/17 00:16:55;;;;;;;3.22;1.67;;;;;;;19.13;100.00;98733.31;4170273;28;20208;-46
2023/08/17 00:18:57;;;;;;;1.23;1.17;;;;;;;19.12;100.00;98726.94;4172770;28;20259;-46
2023/08/17 00:20:59;;;;;;;1.48;1.38;;;;;;;19.11;100.00;98741.13;4169641;28;20204;-48
2023/08/17 00:23:01;;;;;;;64.72;4.03;;;;;;;19.05;100.00;98736.78;4172860;28;20211;-48
2023/08/17 00:25:04;;;;;;;2.38;2.00;;;;;;;19.05;100.00;98732.03;4169339;28;20236;-47
2023/08/17 00:27:06;;;;;;;1.58;1.40;;;;;;;19.01;100.00;98730.16;4170887;28;20215;-46
2023/08/17 00:29:08;;;;;;;3.22;1.60;;;;;;;18.99;100.00;98724.91;4171182;28;20212;-46
2023/08/17 00:31:09;;;;;;;2.78;1.52;;;;;;;18.99;100.00;98716.59;4178942;28;20230;-47
2023/08/17 00:33:11;;;;;;;4.00;1.58;;;;;;;19.01;100.00;98719.91;4169166;28;20247;-46
2023/08/17 00:35:13;;;;;;;4.18;1.60;;;;;;;19.10;100.00;98717.25;4169937;28;20208;-49
2023/08/17 00:37:15;;;;;;;2.05;1.40;;;;;;;19.06;100.00;98727.31;4168596;28;20593;-46
2023/08/17 00:39:17;;;;;;;1.60;1.50;;;;;;;19.01;100.00;98722.69;4174661;28;20207;-48
2023/08/17 00:41:18;;;;;;;1.60;1.50;;;;;;;19.02;100.00;98726.25;4171321;28;20211;-46
2023/08/17 00:43:20;;;;;;;1.80;1.63;;;;;;;18.99;100.00;98726.88;4171288;28;20205;-46
2023/08/17 00:45:23;;;;;;;1.50;1.40;;;;;;;18.95;100.00;98714.72;4186811;28;20210;-46
2023/08/17 00:47:25;;;;;;;3.03;1.33;;;;;;;18.95;100.00;98714.72;4170754;28;20227;-46
2023/08/17 00:49:28;;;;;;;2.00;1.33;;;;;;;18.95;100.00;98711.94;4171034;28;20239;-46
2023/08/17 00:51:29;;;;;;;2.42;1.20;;;;;;;18.92;100.00;98710.59;4158711;28;20259;-46
2023/08/17 00:53:31;;;;;;;4.10;1.40;;;;;;;18.95;100.00;98717.47;4184349;28;20841;-48
2023/08/17 00:55:33;;;;;;;3.58;1.40;;;;;;;18.97;100.00;98706.94;4188496;28;20203;-47
2023/08/17 00:57:36;;;;;;;3.03;2.03;;;;;;;18.90;100.00;98706.44;4184189;28;20631;-46
2023/08/17 00:59:37;;;;;;;1.30;1.20;;;;;;;18.91;100.00;98697.84;4173375;28;20259;-46
2023/08/17 01:01:41;;;;;;;1.00;0.93;;;;;;;18.92;100.00;98704.22;4171519;28;20562;-46
2023/08/17 01:03:43;;;;;;;1.23;1.13;;;;;;;18.86;100.00;98699.88;4185024;28;20272;-47
2023/08/17 01:05:44;;;;;;;2.85;1.10;;;;;;;18.90;100.00;98701.75;4172786;28;20212;-47
2023/08/17 01:07:46;;;;;;;1.58;1.48;;;;;;;18.92;100.00;98699.50;4169035;28;20550;-47
2023/08/17 01:09:48;;;;;;;2.70;1.73;;;;;;;18.86;100.00;98699.88;4186281;28;20216;-46
2023/08/17 01:12:02;;;;;;;6.40;2.00;;;;;;;18.77;100.00;98701.69;4176926;28;20688;-47
2023/08/17 01:14:14;;;;;;;2.78;2.53;;;;;;;18.82;100.00;98704.34;4171670;28;20278;-48
2023/08/17 01:16:27;;;;;;;3.97;3.70;;;;;;;18.64;100.00;98705.19;4169459;28;20204;-48
2023/08/17 01:18:33;;;;;;;32.58;5.25;;;;;;;18.45;100.00;98707.91;4169675;28;20199;-48
2023/08/17 01:20:35;;;;;;;3.35;3.15;;;;;;;18.59;100.00;98702.47;4185299;28;20207;-46
2023/08/17 01:22:40;;;;;;;4.32;3.92;;;;;;;18.68;100.00;98692.34;4170865;28;20204;-48
2023/08/17 01:24:42;;;;;;;109.32;6.32;;;;;;;18.43;100.00;98690.75;4167674;28;20224;-47
2023/08/17 01:26:44;;;;;;;74.30;5.70;;;;;;;18.43;100.00;98689.91;4172045;28;20211;-46
2023/08/17 01:28:47;;;;;;;213.38;10.27;;;;;;;18.31;100.00;98703.38;4167969;28;20259;-46
2023/08/17 01:30:48;;;;;;;30.75;5.00;;;;;;;18.46;100.00;98689.31;4186689;28;20255;-46
2023/08/17 01:33:03;;;;;;;4.82;4.43;;;;;;;18.41;100.00;98697.69;4170137;28;20204;-46
2023/08/17 01:35:18;;;;;;;31.67;5.53;;;;;;;18.57;100.00;98690.84;4185466;28;20615;-47
2023/08/17 01:37:21;;;;;;;3.75;3.45;;;;;;;18.55;100.00;98687.53;4172545;28;20662;-46
2023/08/17 01:39:26;;;;;;;10.95;4.03;;;;;;;18.47;100.00;98688.19;4151557;28;20206;-47
2023/08/17 01:41:28;;;;;;;3.58;3.28;;;;;;;18.52;100.00;98688.16;4172333;28;20203;-48
2023/08/17 01:43:31;;;;;;;3.95;3.45;;;;;;;18.56;100.00;98689.19;4154508;28;20680;-46
2023/08/17 01:45:32;;;;;;;3.15;2.92;;;;;;;18.54;100.00;98696.97;4152047;28;20254;-49
2023/08/17 01:47:35;;;;;;;4.68;3.13;;;;;;;18.44;100.00;98692.38;4167730;28;20220;-47
2023/08/17 01:49:37;;;;;;;2.60;2.40;;;;;;;18.51;100.00;98697.59;4152619;28;20229;-48
2023/08/17 01:51:38;;;;;;;3.17;2.45;;;;;;;18.61;100.00;98697.44;4168320;28;20216;-49
2023/08/17 01:53:40;;;;;;;2.58;2.38;;;;;;;18.59;100.00;98694.16;4184462;28;20223;-47
2023/08/17 01:55:42;;;;;;;2.35;2.15;;;;;;;18.62;100.00;98693.53;4169640;28;20209;-46
2023/08/17 01:57:44;;;;;;;11.07;2.97;;;;;;;18.67;100.00;98688.78;4168949;28;20216;-47
2023/08/17 01:59:45;;;;;;;2.25;2.05;;;;;;;18.61;100.00;98684.41;4169597;28;20204;-47
2023/08/17 02:01:47;;;;;;;2.13;2.00;;;;;;;18.61;100.00;98686.34;4153690;28;20211;-47
2023/08/17 02:03:49;;;;;;;1.90;1.75;;;;;;;18.45;100.00;98684.91;4167724;28;20225;-49
2023/08/17 02:05:50;;;;;;;1.77;1.67;;;;;;;18.52;100.00;98677.06;4176943;28;20208;-47
2023/08/17 02:07:52;;;;;;;2.03;1.92;;;;;;;18.49;100.00;98688.72;4170361;28;20204;-47
2023/08/17 02:09:54;;;;;;;1.92;1.75;;;;;;;18.52;100.00;98682.59;4173539;28;20611;-47
2023/08/17 02:11:56;;;;;;;3.88;1.67;;;;;;;18.51;100.00;98681.75;4165268;28;20246;-47
2023/08/17 02:13:57;;;;;;;1.70;1.40;;;;;;;18.53;100.00;98684.25;4169473;28;20235;-50
2023/08/17 02:15:59;;;;;;;1.88;1.77;;;;;;;18.50;100.00;98682.06;4170259;28;20326;-46
2023/08/17 02:18:01;;;;;;;1.65;1.52;;;;;;;18.57;100.00;98685.31;4184551;28;20208;-47
2023/08/17 02:20:04;;;;;;;2.33;1.88;;;;;;;18.56;100.00;98678.94;4169602;28;20255;-47
2023/08/17 02:22:06;;;;;;;2.40;2.20;;;;;;;18.52;100.00;98682.59;4152518;28;20212;-49
2023/08/17 02:24:07;;;;;;;1.58;1.48;;;;;;;18.52;100.00;98688.16;4169231;28;20236;-47
2023/08/17 02:26:09;;;;;;;1.75;1.65;;;;;;;18.45;100.00;98671.84;4151518;28;20697;-48
2023/08/17 02:28:11;;;;;;;4.00;1.40;;;;;;;18.42;100.00;98669.69;4171458;28;20215;-47
2023/08/17 02:30:13;;;;;;;5.60;1.10;;;;;;;18.43;100.00;98673.28;4162902;28;20636;-54
2023/08/17 02:32:15;;;;;;;1.50;1.30;;;;;;;18.45;100.00;98671.84;4171386;28;20258;-47
2023/08/17 02:34:16;;;;;;;2.15;1.38;;;;;;;18.43;100.00;98668.56;4171692;28;20232;-47
2023/08/17 02:36:18;;;;;;;1.40;1.30;;;;;;;18.41;100.00;98668.06;4170275;28;20251;-47
2023/08/17 02:38:20;;;;;;;2.53;1.02;;;;;;;18.41;100.00;98664.44;4169450;28;20327;-49
2023/08/17 02:40:22;;;;;;;2.22;1.13;;;;;;;18.38;100.00;98665.84;4174731;28;20684;-48
2023/08/17 02:42:24;;;;;;;1.73;1.00;;;;;;;18.36;100.00;98667.28;4185953;28;20214;-48
2023/08/17 02:44:27;;;;;;;51.58;3.15;;;;;;;18.33;100.00;98667.88;4171163;28;20238;-49
2023/08/17 02:46:29;;;;;;;2.13;2.03;;;;;;;18.25;100.00;98679.59;4187436;28;20199;-47
2023/08/17 02:48:31;;;;;;;3.50;3.08;;;;;;;18.24;100.00;98675.16;4189579;28;20222;-48
2023/08/17 02:50:33;;;;;;;4.88;2.92;;;;;;;18.29;100.00;98677.84;4172814;28;20232;-47
2023/08/17 02:52:35;;;;;;;5.97;5.38;;;;;;;18.23;100.00;98687.34;4187712;28;20219;-49
2023/08/17 02:54:37;;;;;;;5.05;4.65;;;;;;;18.28;100.00;98687.28;4154988;28;20265;-46
2023/08/17 02:56:38;;;;;;;5.60;4.30;;;;;;;18.30;100.00;98679.50;4170864;28;20204;-46
2023/08/17 02:58:40;;;;;;;5.03;2.83;;;;;;;18.21;100.00;98675.75;4158755;28;20201;-47
2023/08/17 03:00:42;;;;;;;6.97;2.67;;;;;;;18.22;100.00;98671.84;4172785;28;20642;-47
2023/08/17 03:02:44;;;;;;;8.88;2.15;;;;;;;18.20;100.00;98668.56;4188336;28;20567;-47
2023/08/17 03:04:46;;;;;;;3.45;1.98;;;;;;;18.19;100.00;98664.16;4189467;28;20788;-49
2023/08/17 03:06:47;;;;;;;1.85;1.75;;;;;;;18.15;100.00;98666.69;4177811;28;20657;-48
2023/08/17 03:08:49;;;;;;;2.08;1.98;;;;;;;18.20;100.00;98668.56;4171586;28;20258;-46
2023/08/17 03:10:51;;;;;;;3.50;3.20;;;;;;;18.22;100.00;98666.31;4173479;28;21227;-47
2023/08/17 03:12:52;;;;;;;4.47;2.90;;;;;;;18.15;100.00;98660.31;4177821;28;20200;-47
2023/08/17 03:14:54;;;;;;;5.90;3.25;;;;;;;18.14;100.00;98658.66;4171657;28;20228;-49
2023/08/17 03:16:56;;;;;;;2.72;2.53;;;;;;;18.09;100.00;98661.47;4155237;28;20209;-47
2023/08/17 03:18:58;;;;;;;3.28;2.97;;;;;;;18.12;100.00;98661.72;4173555;28;20242;-47
2023/08/17 03:21:00;;;;;;;5.35;3.15;;;;;;;18.11;100.00;98664.81;4172409;28;20200;-47
2023/08/17 03:23:05;;;;;;;3.63;3.33;;;;;;;18.16;100.00;98656.41;4170163;28;20215;-47
2023/08/17 03:25:08;;;;;;;3.92;3.63;;;;;;;18.17;100.00;98656.13;4170912;28;20229;-47
2023/08/17 03:27:09;;;;;;;3.67;3.38;;;;;;;18.17;100.00;98652.50;4179433;28;20321;-47
2023/08/17 03:29:11;;;;;;;4.10;3.80;;;;;;;18.22;100.00;98655.22;4179207;28;20208;-46
2023/08/17 03:31:13;;;;;;;6.90;5.15;;;;;;;18.27;100.00;98647.69;4172570;28;20697;-48
2023/08/17 03:33:15;;;;;;;5.05;4.60;;;;;;;18.22;100.00;98655.22;4158757;28;20217;-47
2023/08/17 03:35:16;;;;;;;11.68;4.30;;;;;;;18.29;100.00;98661.22;4174719;28;20204;-49
2023/08/17 03:37:18;;;;;;;5.20;4.15;;;;;;;18.23;100.00;98676.25;4163153;28;20317;-47
2023/08/17 03:39:20;;;;;;;4.80;3.75;;;;;;;18.16;100.00;98675.78;4165347;28;20255;-50
2023/08/17 03:41:24;;;;;;;2.92;2.72;;;;;;;18.11;100.00;98675.88;4170710;28;20231;-47
2023/08/17 03:43:26;;;;;;;5.28;3.13;;;;;;;18.23;100.00;98674.34;4171326;28;20209;-48
2023/08/17 03:45:30;;;;;;;16.27;3.70;;;;;;;18.12;100.00;98669.22;4167594;28;20208;-47
2023/08/17 03:47:31;;;;;;;2.30;2.10;;;;;;;18.04;100.00;98665.13;4173116;28;20788;-47
2023/08/17 03:49:33;;;;;;;2.83;2.40;;;;;;;18.05;100.00;98665.97;4170737;28;20689;-47
2023/08/17 03:51:35;;;;;;;3.15;2.88;;;;;;;18.05;100.00;98666.78;4173177;28;20264;-49
2023/08/17 03:53:36;;;;;;;7.13;2.65;;;;;;;18.10;100.00;98671.44;4179006;28;20224;-47
2023/08/17 03:55:38;;;;;;;3.17;2.97;;;;;;;18.04;100.00;98665.13;4170153;28;20254;-48
2023/08/17 03:57:40;;;;;;;11.13;3.65;;;;;;;18.03;100.00;98668.19;4170949;28;20749;-49
2023/08/17 03:59:42;;;;;;;2.58;2.38;;;;;;;18.02;100.00;98667.38;4169889;28;21260;-47
2023/08/17 04:01:43;;;;;;;2.60;2.40;;;;;;;18.02;100.00;98672.09;4186655;28;20934;-46
2023/08/17 04:03:45;;;;;;;3.30;3.00;;;;;;;18.08;100.00;98687.53;4172032;28;20277;-47
2023/08/17 04:05:47;;;;;;;8.52;3.25;;;;;;;17.97;100.00;98678.50;4174243;28;20268;-47
2023/08/17 04:07:49;;;;;;;3.67;3.38;;;;;;;18.00;100.00;98677.94;4185431;28;20242;-52
2023/08/17 04:09:50;;;;;;;3.60;3.30;;;;;;;18.03;100.00;98674.56;4177637;28;20282;-46
2023/08/17 04:11:52;;;;;;;64.25;6.85;;;;;;;17.87;100.00;98669.50;4186633;28;20283;-47
2023/08/17 04:13:54;;;;;;;5.28;4.78;;;;;;;17.95;100.00;98688.22;4170112;28;20247;-47
2023/08/17 04:15:56;;;;;;;52.65;6.82;;;;;;;17.92;100.00;98674.97;4187825;28;20215;-47
2023/08/17 04:17:57;;;;;;;5.28;4.75;;;;;;;17.99;100.00;98681.00;4170917;28;20654;-47
2023/08/17 04:19:59;;;;;;;11.25;5.82;;;;;;;17.90;100.00;98674.44;4169023;28;20204;-47
2023/08/17 04:22:01;;;;;;;4.97;4.57;;;;;;;17.87;100.00;98672.25;4172363;28;20200;-46
2023/08/17 04:24:03;;;;;;;3.95;3.65;;;;;;;17.92;100.00;98672.22;4170043;28;20279;-46
2023/08/17 04:26:05;;;;;;;2.67;2.38;;;;;;;17.93;100.00;98679.41;4184966;28;20219;-47
2023/08/17 04:28:06;;;;;;;3.50;1.83;;;;;;;17.97;100.00;98685.97;4188439;28;20257;-46
2023/08/17 04:30:09;;;;;;;1.95;1.85;;;;;;;17.96;100.00;98695.41;4171249;28;20270;-46
2023/08/17 04:32:15;;;;;;;3.10;1.38;;;;;;;17.92;100.00;98694.38;4170196;28;20655;-47
2023/08/17 04:34:17;;;;;;;27.88;2.03;;;;;;;17.63;100.00;98690.75;4178017;28;20260;-46
2023/08/17 04:36:19;;;;;;;1.33;1.20;;;;;;;17.71;100.00;98687.38;4171450;28;20231;-47
2023/08/17 04:38:20;;;;;;;1.38;0.95;;;;;;;17.82;100.00;98694.47;4170908;28;20247;-47
2023/08/17 04:40:22;;;;;;;1.27;1.10;;;;;;;17.86;100.00;98690.81;4162287;28;20212;-47
2023/08/17 04:42:24;;;;;;;2.05;1.60;;;;;;;17.86;100.00;98692.75;4170079;28;20211;-48
2023/08/17 04:44:26;;;;;;;5.45;1.80;;;;;;;17.76;100.00;98693.69;4170020;28;20268;-54
2023/08/17 04:46:28;;;;;;;3.10;1.52;;;;;;;17.74;100.00;98689.56;4172170;28;20208;-47
2023/08/17 04:48:29;;;;;;;7.43;2.33;;;;;;;17.75;100.00;98691.22;4168207;28;20212;-47
2023/08/17 04:50:32;;;;;;;2.40;2.20;;;;;;;17.69;100.00;98700.66;4172989;28;20204;-51
2023/08/17 04:52:34;;;;;;;3.22;2.15;;;;;;;17.78;100.00;98698.94;4170885;28;20215;-48
2023/08/17 04:54:36;;;;;;;3.70;2.17;;;;;;;17.86;100.00;98693.56;4166684;28;20258;-46
2023/08/17 04:56:38;;;;;;;3.55;2.25;;;;;;;17.84;100.00;98708.84;4170611;28;20223;-47
2023/08/17 04:58:39;;;;;;;2.35;2.08;;;;;;;17.73;100.00;98707.28;4179763;28;20211;-47
2023/08/17 05:00:41;;;;;;;6.18;2.53;;;;;;;17.80;100.00;98702.25;4172590;28;20231;-49
2023/08/17 05:02:43;;;;;;;2.17;1.77;;;;;;;17.82;100.00;98691.69;4172927;28;20276;-49
2023/08/17 05:04:46;;;;;;;4.07;1.50;;;;;;;17.90;100.00;98702.13;4167446;28;20260;-47
2023/08/17 05:06:48;;;;;;;5.00;1.90;;;;;;;17.91;100.00;98698.25;4170535;28;20205;-47
2023/08/17 05:08:49;;;;;;;2.58;2.00;;;;;;;17.91;100.00;98699.06;4172263;28;20211;-47
2023/08/17 05:10:51;;;;;;;2.08;1.67;;;;;;;17.99;100.00;98711.47;4171359;28;20702;-49
2023/08/17 05:12:53;;;;;;;1.70;1.52;;;;;;;17.96;100.00;98709.25;4167434;28;20207;-48
2023/08/17 05:14:55;;;;;;;2.80;1.70;;;;;;;17.97;100.00;98705.38;4178518;28;20593;-46
2023/08/17 05:16:57;;;;;;;2.28;1.98;;;;;;;18.01;100.00;98703.69;4168793;28;20216;-47
2023/08/17 05:18:59;;;;;;;3.03;2.72;;;;;;;18.03;100.00;98701.44;4168541;28;20685;-46
2023/08/17 05:21:01;;;;;;;4.40;2.50;;;;;;;17.93;100.00;98702.34;4177947;28;20270;-47
2023/08/17 05:23:03;;;;;;;3.60;2.17;;;;;;;17.91;100.00;98703.78;4171145;28;20270;-47
2023/08/17 05:25:06;;;;;;;4.28;2.35;;;;;;;17.95;100.00;98699.31;4170742;28;20711;-46
2023/08/17 05:27:08;;;;;;;2.88;2.22;;;;;;;17.99;100.00;98708.69;4178267;28;20230;-47
2023/08/17 05:29:09;;;;;;;3.47;2.53;;;;;;;18.03;100.00;98704.19;4167525;28;20212;-47
2023/08/17 05:31:11;;;;;;;3.47;2.83;;;;;;;18.00;100.00;98710.34;4177998;28;20752;-47
2023/08/17 05:33:13;;;;;;;2.28;2.08;;;;;;;18.03;100.00;98718.88;4170084;28;20704;-47
2023/08/17 05:35:14;;;;;;;2.22;2.00;;;;;;;18.00;100.00;98721.41;4168168;28;20258;-49
2023/08/17 05:37:16;;;;;;;1.83;1.58;;;;;;;17.90;100.00;98716.81;4168840;28;20258;-46
2023/08/17 05:39:18;;;;;;;2.17;1.92;;;;;;;18.01;100.00;98723.06;4167519;28;20662;-48
2023/08/17 05:41:20;;;;;;;2.80;1.40;;;;;;;18.08;100.00;98721.59;4168810;28;20677;-48
2023/08/17 05:43:22;;;;;;;3.17;1.95;;;;;;;17.83;100.00;98729.31;4187048;28;20208;-48
2023/08/17 05:45:24;;;;;;;4.13;1.90;;;;;;;17.60;100.00;98725.38;4184440;28;20207;-48
2023/08/17 05:47:25;;;;;;;4.47;2.13;;;;;;;17.36;100.00;98726.38;4168460;28;20204;-48
2023/08/17 05:49:28;;;;;;;2.60;2.10;;;;;;;17.65;100.00;98724.53;4172362;28;20208;-48
2023/08/17 05:51:29;;;;;;;4.90;2.72;;;;;;;17.69;100.00;98736.66;4183406;28;20226;-49
2023/08/17 05:53:31;;;;;;;4.35;2.30;;;;;;;17.82;100.00;98733.22;4170806;28;20232;-50
2023/08/17 05:55:33;;;;;;;2.55;2.33;;;;;;;17.94;100.00;98725.34;4186221;28;20204;-47
2023/08/17 05:57:35;;;;;;;2.38;1.70;;;;;;;18.02;100.00;98727.47;4177876;28;20321;-48
2023/08/17 05:59:37;;;;;;;2.55;1.88;;;;;;;17.99;100.00;98731.66;4167893;28;20204;-47
2023/08/17 06:01:39;;;;;;;3.15;1.90;;;;;;;18.05;100.00;98732.44;4173689;28;20262;-47
2023/08/17 06:03:40;;;;;;;3.10;2.17;;;;;;;18.13;100.00;98735.38;4166380;28;20253;-47
2023/08/17 06:05:42;;;;;;;2.80;1.85;;;;;;;18.23;100.00;98740.00;4167604;28;20203;-48
2023/08/17 06:07:44;;;;;;;2.85;2.47;;;;;;;18.27;100.00;98741.91;4157165;28;20213;-48
2023/08/17 06:09:46;;;;;;;2.65;2.45;;;;;;;18.27;100.00;98735.53;4169308;28;20681;-49
2023/08/17 06:11:48;;;;;;;2.60;1.63;;;;;;;18.25;100.00;98748.84;4187073;28;20231;-47
2023/08/17 06:13:49;;;;;;;2.38;2.10;;;;;;;18.24;100.00;98752.75;4153243;28;20217;-48
2023/08/17 06:15:51;;;;;;;2.22;1.63;;;;;;;18.22;100.00;98738.34;4165818;28;20208;-47
2023/08/17 06:17:53;;;;;;;3.13;2.17;;;;;;;18.27;100.00;98746.59;4176648;28;20266;-51
2023/08/17 06:19:55;;;;;;;4.10;2.10;;;;;;;18.32;100.00;98741.84;4170468;28;20260;-48
2023/08/17 06:21:56;;;;;;;5.10;1.50;;;;;;;18.41;100.00;98744.81;4168532;28;20731;-49
2023/08/17 06:23:58;;;;;;;3.78;2.05;;;;;;;18.29;100.00;98749.91;4175973;28;20224;-48
2023/08/17 06:26:00;;;;;;;3.95;2.20;;;;;;;18.39;100.00;98752.59;4169095;28;20219;-47
2023/08/17 06:28:02;;;;;;;2.83;2.00;;;;;;;18.48;100.00;98759.13;4168443;28;20207;-47
2023/08/17 06:30:04;;;;;;;4.50;2.45;;;;;;;18.53;100.00;98753.53;4166400;28;20207;-48
2023/08/17 06:32:06;;;;;;;2.45;2.25;;;;;;;18.47;100.00;98752.78;4169082;28;20282;-48
2023/08/17 06:34:08;;;;;;;4.18;2.65;;;;;;;18.37;100.00;98738.19;4187291;28;20257;-47
2023/08/17 06:36:13;;;;;;;3.45;2.28;;;;;;;18.34;100.00;98747.13;4177619;28;20204;-48
2023/08/17 06:38:14;;;;;;;2.55;1.55;;;;;;;18.31;100.00;98737.44;4181878;28;20208;-47
2023/08/17 06:40:17;;;;;;;4.45;2.05;;;;;;;18.29;100.00;98738.81;4152033;28;20205;-48
2023/08/17 06:42:19;;;;;;;1.98;1.83;;;;;;;18.19;100.00;98734.22;4166713;28;20860;-47
2023/08/17 06:44:21;;;;;;;1.67;1.50;;;;;;;18.34;100.00;98736.03;4184199;28;20311;-47
2023/08/17 06:46:24;;;;;;;2.40;1.60;;;;;;;18.43;100.00;98742.56;4164509;28;20211;-48
2023/08/17 06:48:26;;;;;;;1.73;1.40;;;;;;;18.34;100.00;98742.41;4168902;28;20681;-47
2023/08/17 06:50:28;;;;;;;1.75;1.65;;;;;;;18.47;100.00;98746.41;4167478;28;20201;-47
2023/08/17 06:52:30;;;;;;;2.25;2.05;;;;;;;18.42;100.00;98761.16;4152594;28;20241;-49
2023/08/17 06:54:32;;;;;;;3.67;2.40;;;;;;;18.32;100.00;98754.91;4176433;28;20224;-47
2023/08/17 06:56:34;;;;;;;1.67;1.20;;;;;;;18.43;100.00;98756.41;4167490;28;20808;-47
2023/08/17 06:58:35;;;;;;;1.67;1.58;;;;;;;18.56;100.00;98747.41;4167440;28;20213;-47
2023/08/17 07:00:40;;;;;;;3.25;1.65;;;;;;;18.57;100.00;98749.06;4178878;28;20200;-51
2023/08/17 07:02:42;;;;;;;4.30;1.52;;;;;;;18.15;100.00;98743.41;4171943;28;20266;-50
2023/08/17 07:04:55;;;;;;;2.42;2.22;;;;;;;18.34;100.00;98750.72;4175217;28;20314;-47
2023/08/17 07:06:57;;;;;;;2.35;1.48;;;;;;;18.35;100.00;98754.31;4168903;28;20330;-47
2023/08/17 07:08:59;;;;;;;1.48;1.38;;;;;;;18.47;100.00;98757.50;4168773;28;20205;-48
2023/08/17 07:11:01;;;;;;;1.73;1.63;;;;;;;18.59;100.00;98763.47;4167360;28;20211;-48
2023/08/17 07:13:03;;;;;;;3.15;1.75;;;;;;;18.63;100.00;98761.72;4182598;28;20228;-47
2023/08/17 07:15:06;;;;;;;1.40;1.30;;;;;;;18.57;100.00;98762.94;4170895;28;20240;-48
2023/08/17 07:17:08;;;;;;;2.90;1.35;;;;;;;18.68;100.00;98758.91;4189958;28;20208;-47
2023/08/17 07:19:10;;;;;;;1.30;1.20;;;;;;;18.75;100.00;98768.50;4174975;28;20207;-49
2023/08/17 07:21:12;;;;;;;3.10;1.80;;;;;;;18.73;100.00;98769.94;4173826;28;20247;-47
2023/08/17 07:23:14;;;;;;;2.20;1.60;;;;;;;18.81;100.00;98758.19;4172012;28;20263;-47
2023/08/17 07:25:15;;;;;;;1.80;1.17;;;;;;;18.90;100.00;98762.75;4185484;28;20229;-49
2023/08/17 07:27:17;;;;;;;1.23;1.05;;;;;;;19.02;100.00;98767.88;4171666;28;20216;-49
2023/08/17 07:29:19;;;;;;;1.27;1.17;;;;;;;19.13;100.00;98761.88;4172174;28;20246;-47
2023/08/17 07:31:21;;;;;;;1.52;1.40;;;;;;;19.10;100.00;98762.50;4179829;28;21148;-47
2023/08/17 07:33:22;;;;;;;1.98;1.25;;;;;;;19.12;100.00;98756.66;4171476;28;20204;-46
2023/08/17 07:35:24;;;;;;;2.90;1.33;;;;;;;19.10;100.00;98761.66;4190744;28;20238;-50
2023/08/17 07:37:32;;;;;;;1.90;1.55;;;;;;;19.24;100.00;98754.28;4188847;28;20204;-47
2023/08/17 07:39:35;;;;;;;1.30;1.20;;;;;;;19.33;100.00;98752.47;4171873;28;20258;-47
2023/08/17 07:41:37;;;;;;;3.15;1.35;;;;;;;19.44;100.00;98757.56;4179562;28;20200;-46
2023/08/17 07:43:38;;;;;;;1.27;1.17;;;;;;;19.26;100.00;98760.34;4177223;28;20696;-47
2023/08/17 07:45:40;;;;;;;1.88;1.35;;;;;;;19.08;100.00;98759.19;4171452;28;20212;-47
2023/08/17 07:47:42;;;;;;;4.63;1.50;;;;;;;19.29;100.00;98759.75;4169664;28;20664;-47
2023/08/17 07:49:43;;;;;;;1.15;1.00;;;;;;;19.34;100.00;98752.19;4169487;28;20206;-47
2023/08/17 07:51:47;;;;;;;6.93;1.20;;;;;;;19.49;100.00;98749.16;4169995;28;20248;-47
2023/08/17 07:53:49;;;;;;;1.23;1.13;;;;;;;19.46;100.00;98744.19;4170077;28;20228;-47
2023/08/17 07:55:51;;;;;;;1.60;1.50;;;;;;;19.40;100.00;98744.59;4170818;28;20200;-50
2023/08/17 07:57:56;;;;;;;2.45;2.25;;;;;;;19.14;100.00;98740.50;4170576;28;20208;-47
2023/08/17 07:59:58;;;;;;;1.70;1.60;;;;;;;19.15;100.00;98731.06;4185662;28;20218;-48
2023/08/17 08:01:59;;;;;;;3.08;2.30;;;;;;;19.16;100.00;98738.25;4179379;28;20218;-48
2023/08/17 08:04:02;;;;;;;2.35;2.15;;;;;;;19.32;100.00;98736.94;4172062;28;20240;-47
2023/08/17 08:06:04;;;;;;;3.17;2.60;;;;;;;19.34;100.00;98734.69;4171575;28;20204;-52
2023/08/17 08:08:05;;;;;;;2.90;2.65;;;;;;;19.44;100.00;98734.56;4174953;28;20212;-48
2023/08/17 08:10:08;;;;;;;2.45;2.20;;;;;;;19.59;100.00;98739.84;4172002;28;20593;-47
2023/08/17 08:12:09;;;;;;;3.92;2.88;;;;;;;19.53;100.00;98739.13;4179240;28;20227;-47
2023/08/17 08:14:11;;;;;;;2.63;2.40;;;;;;;19.69;100.00;98731.34;4178493;28;20262;-48
2023/08/17 08:16:13;;;;;;;3.58;2.95;;;;;;;19.79;100.00;98731.97;4170458;28;20688;-47
2023/08/17 08:18:15;;;;;;;2.50;1.80;;;;;;;19.88;100.00;98732.13;4179245;28;20247;-47
2023/08/17 08:20:17;;;;;;;3.20;2.90;;;;;;;19.91;100.00;98737.06;4169544;28;20649;-46
2023/08/17 08:22:18;;;;;;;3.25;2.75;;;;;;;19.80;100.00;98744.75;4170820;28;20208;-46
2023/08/17 08:24:20;;;;;;;3.55;2.60;;;;;;;19.77;100.00;98739.00;4170230;28;20234;-47
2023/08/17 08:26:38;;;;;;;4.18;2.70;;;;;;;19.96;100.00;98743.34;4171092;28;20284;-47
2023/08/17 08:28:40;;;;;;;2.90;2.60;;;;;;;20.09;100.00;98741.75;4154988;28;20205;-47
2023/08/17 08:30:41;;;;;;;3.15;2.20;;;;;;;20.19;100.00;98738.81;4184673;28;20202;-47
2023/08/17 08:32:43;;;;;;;2.30;2.10;;;;;;;20.25;100.00;98740.38;4168651;28;20267;-47
2023/08/17 08:34:45;;;;;;;3.53;2.50;;;;;;;20.29;100.00;98741.38;4172125;28;20591;-47
2023/08/17 08:36:48;;;;;;;4.03;2.35;;;;;;;20.34;100.00;98749.63;4188130;28;20256;-46
2023/08/17 08:38:50;;;;;;;2.50;2.20;;;;;;;20.43;100.00;98742.22;4153013;28;20209;-47
2023/08/17 08:40:53;;;;;;;3.05;1.83;;;;;;;20.46;100.00;98752.72;4169919;28;20211;-47
2023/08/17 08:42:55;;;;;;;2.63;2.33;;;;;;;20.52;100.00;98746.75;4187417;28;20225;-48
2023/08/17 08:44:58;;;;;;;2.35;2.08;;;;;;;20.61;100.00;98744.06;4166460;28;20248;-47
2023/08/17 08:47:01;;;;;;;2.42;2.22;;;;;;;20.52;100.00;98740.38;4170445;28;20644;-48
2023/08/17 08:49:03;;;;;;;2.08;1.98;;;;;;;20.69;100.00;98740.56;4179452;28;20207;-48
2023/08/17 08:51:08;;;;;;;2.38;1.70;;;;;;;20.81;100.00;98744.50;4171729;28;20215;-46
2023/08/17 08:53:17;;;;;;;6.28;3.08;;;;;;;20.74;100.00;98740.47;4168646;28;20321;-47
2023/08/17 08:55:21;;;;;;;3.08;2.75;;;;;;;20.71;100.00;98749.44;4168741;28;20211;-47
2023/08/17 08:57:23;;;;;;;2.85;2.58;;;;;;;20.85;100.00;98755.81;4172034;28;20207;-46
2023/08/17 08:59:27;;;;;;;2.15;2.05;;;;;;;21.00;100.00;98753.56;4172226;28;20205;-47
2023/08/17 09:01:30;;;;;;;2.72;2.22;;;;;;;21.02;100.00;98750.44;4171188;28;21014;-47
2023/08/17 09:03:32;;;;;;;2.88;2.58;;;;;;;21.21;100.00;98748.34;4170386;28;20254;-49
2023/08/17 09:05:35;;;;;;;3.30;1.77;;;;;;;21.05;100.00;98749.84;4172180;28;20326;-47
2023/08/17 09:07:37;;;;;;;2.22;2.00;;;;;;;21.05;100.00;98747.06;4192859;28;20240;-48
2023/08/17 09:09:39;;;;;;;2.40;2.17;;;;;;;21.00;100.00;98744.38;4170471;28;20277;-46
2023/08/17 09:11:41;;;;;;;2.50;2.30;;;;;;;20.72;100.00;98751.09;4170740;28;20211;-47
2023/08/17 09:13:46;;;;;;;3.47;1.80;;;;;;;20.84;100.00;98737.47;4160073;28;20236;-47
2023/08/17 09:15:47;;;;;;;2.65;1.80;;;;;;;20.47;100.00;98748.81;4172026;28;20212;-48
2023/08/17 09:17:50;;;;;;;2.28;2.10;;;;;;;21.01;100.00;98743.25;4171643;28;20215;-47
2023/08/17 09:19:52;;;;;;;4.38;2.17;;;;;;;21.01;100.00;98743.25;4170025;28;20231;-47
2023/08/17 09:21:54;;;;;;;2.35;2.15;;;;;;;21.35;100.00;98744.41;4171602;28;20646;-47
2023/08/17 09:23:56;;;;;;;3.50;1.80;;;;;;;20.94;100.00;98732.56;4172794;28;20237;-48
2023/08/17 09:26:08;;;;;;;2.15;2.00;;;;;;;20.93;100.00;98741.22;4169459;28;20220;-47
2023/08/17 09:28:14;;;;;;;3.67;2.22;;;;;;;20.86;100.00;98735.22;4169805;28;20618;-47